Time;durP1;ratioP1;P1;durP2;ratioP2;P2;SDS_P1;SDS_P2;PMS_P1;PMS_P2;Temp;Humidity;BMP_temperature;BMP_pressure;BME280_temperature;BME280_humidity;BME280_pressure;Samples;Min_cycle;Max_cycle;Signal;HPM_P1;HPM_P2
2022/03/05 00:00:43;;;;;;;10.68;8.50;;;;;;;;;;5078345;28;20208;-67
2022/03/05 00:03:09;;;;;;;14.02;8.68;;;;;;;;;;5078246;28;20208;-67
2022/03/05 00:05:35;;;;;;;16.08;9.38;;;;;;;;;;5077881;28;20251;-66
2022/03/05 00:08:03;;;;;;;12.63;8.75;;;;;;;;;;5077157;28;20250;-66
2022/03/05 00:10:30;;;;;;;16.95;9.32;;;;;;;;;;5077679;28;20232;-66
2022/03/05 00:12:56;;;;;;;14.73;8.95;;;;;;;;;;5078070;28;20220;-66
2022/03/05 00:15:24;;;;;;;14.63;8.95;;;;;;;;;;5077706;28;20242;-66
2022/03/05 00:17:51;;;;;;;14.98;9.75;;;;;;;;;;5077747;28;20574;-66
2022/03/05 00:20:18;;;;;;;16.35;10.25;;;;;;;;;;5078056;28;20211;-67
2022/03/05 00:22:45;;;;;;;16.50;9.15;;;;;;;;;;5077912;28;20285;-66
2022/03/05 00:25:12;;;;;;;16.38;9.05;;;;;;;;;;5077272;28;20208;-67
2022/03/05 00:27:38;;;;;;;12.57;8.93;;;;;;;;;;5078399;28;20221;-67
2022/03/05 00:30:05;;;;;;;15.27;8.32;;;;;;;;;;5083287;28;20220;-67
2022/03/05 00:32:33;;;;;;;13.93;9.02;;;;;;;;;;5083220;28;20196;-67
2022/03/05 00:34:59;;;;;;;14.25;9.25;;;;;;;;;;5083264;28;20196;-67
2022/03/05 00:37:26;;;;;;;14.80;9.27;;;;;;;;;;5082630;28;20499;-67
2022/03/05 00:39:52;;;;;;;13.73;8.55;;;;;;;;;;5081940;28;20199;-67
2022/03/05 00:42:18;;;;;;;12.13;8.55;;;;;;;;;;5083239;28;20204;-67
2022/03/05 00:44:44;;;;;;;13.75;9.02;;;;;;;;;;5083044;28;20692;-67
2022/03/05 00:47:11;;;;;;;13.77;8.20;;;;;;;;;;5082509;28;20197;-68
2022/03/05 00:49:38;;;;;;;11.65;8.20;;;;;;;;;;5082976;28;20439;-67
2022/03/05 00:52:05;;;;;;;15.30;8.38;;;;;;;;;;5082746;28;20507;-67
2022/03/05 00:54:31;;;;;;;15.35;8.00;;;;;;;;;;5083051;28;20196;-67
2022/03/05 00:56:58;;;;;;;12.30;8.20;;;;;;;;;;5082475;28;20197;-67
2022/03/05 00:59:24;;;;;;;17.95;8.30;;;;;;;;;;5083012;28;20197;-67
2022/03/05 01:01:50;;;;;;;11.05;7.70;;;;;;;;;;5082598;28;20431;-67
2022/03/05 01:04:16;;;;;;;9.98;7.90;;;;;;;;;;5082759;28;20494;-67
2022/03/05 01:06:44;;;;;;;12.50;8.68;;;;;;;;;;5082343;28;20273;-67
2022/03/05 01:09:10;;;;;;;14.35;8.35;;;;;;;;;;5082629;28;20196;-67
2022/03/05 01:11:37;;;;;;;9.30;8.07;;;;;;;;;;5082719;28;20226;-67
2022/03/05 01:14:03;;;;;;;12.88;8.00;;;;;;;;;;5082442;28;20264;-67
2022/03/05 01:16:30;;;;;;;10.43;7.20;;;;;;;;;;5082182;28;20211;-67
2022/03/05 01:18:56;;;;;;;11.13;7.25;;;;;;;;;;5082389;28;20196;-67
2022/03/05 01:21:22;;;;;;;11.77;7.72;;;;;;;;;;5082368;28;20212;-67
2022/03/05 01:23:50;;;;;;;10.35;7.60;;;;;;;;;;5082284;28;20246;-67
2022/03/05 01:26:16;;;;;;;9.40;6.93;;;;;;;;;;5082057;28;20461;-67
2022/03/05 01:28:42;;;;;;;9.98;7.28;;;;;;;;;;5082369;28;20234;-67
2022/03/05 01:31:09;;;;;;;9.60;7.25;;;;;;;;;;5081992;28;20220;-67
2022/03/05 01:33:35;;;;;;;9.25;6.82;;;;;;;;;;5082297;28;20203;-67
2022/03/05 01:36:01;;;;;;;10.48;7.03;;;;;;;;;;5082005;28;20196;-67
2022/03/05 01:38:27;;;;;;;9.95;7.03;;;;;;;;;;5082520;28;20196;-67
2022/03/05 01:40:55;;;;;;;11.38;7.38;;;;;;;;;;5082300;28;20200;-67
2022/03/05 01:43:21;;;;;;;11.45;7.75;;;;;;;;;;5082216;28;20200;-67
2022/03/05 01:45:48;;;;;;;10.48;7.07;;;;;;;;;;5082085;28;20203;-67
2022/03/05 01:48:14;;;;;;;11.52;7.35;;;;;;;;;;5081947;28;20234;-67
2022/03/05 01:50:40;;;;;;;9.13;7.00;;;;;;;;;;5081971;28;20294;-67
2022/03/05 01:53:07;;;;;;;11.82;7.90;;;;;;;;;;5082323;28;20204;-67
2022/03/05 01:55:33;;;;;;;9.82;7.10;;;;;;;;;;5082296;28;20200;-67
2022/03/05 01:58:01;;;;;;;10.15;7.15;;;;;;;;;;5083747;28;20643;-67
2022/03/05 02:00:27;;;;;;;12.00;7.32;;;;;;;;;;5086690;28;20237;-67
2022/03/05 02:02:54;;;;;;;11.32;7.80;;;;;;;;;;5086085;28;20208;-67
2022/03/05 02:05:20;;;;;;;11.30;7.28;;;;;;;;;;5086103;28;20224;-67
2022/03/05 02:07:46;;;;;;;10.27;7.43;;;;;;;;;;5085984;28;20196;-67
2022/03/05 02:10:12;;;;;;;11.90;7.68;;;;;;;;;;5086102;28;20230;-67
2022/03/05 02:12:39;;;;;;;12.00;7.43;;;;;;;;;;5085946;28;20212;-67
2022/03/05 02:15:08;;;;;;;11.98;7.72;;;;;;;;;;5085912;28;20203;-67
2022/03/05 02:17:34;;;;;;;12.40;7.65;;;;;;;;;;5085523;28;20204;-67
2022/03/05 02:20:00;;;;;;;11.00;7.45;;;;;;;;;;5085958;28;20196;-67
2022/03/05 02:22:28;;;;;;;9.02;7.15;;;;;;;;;;5085941;28;20206;-67
2022/03/05 02:24:55;;;;;;;9.52;7.28;;;;;;;;;;5085559;28;20204;-67
2022/03/05 02:27:23;;;;;;;8.85;6.82;;;;;;;;;;5085436;28;20196;-67
2022/03/05 02:29:49;;;;;;;10.73;6.75;;;;;;;;;;5085431;28;20254;-67
2022/03/05 02:32:15;;;;;;;10.50;7.20;;;;;;;;;;5085994;28;20219;-67
2022/03/05 02:34:42;;;;;;;10.73;7.25;;;;;;;;;;5085629;28;20200;-67
2022/03/05 02:37:10;;;;;;;9.25;6.55;;;;;;;;;;5085258;28;20256;-67
2022/03/05 02:39:37;;;;;;;10.40;7.30;;;;;;;;;;5085662;28;20550;-67
2022/03/05 02:42:04;;;;;;;9.65;6.95;;;;;;;;;;5085330;28;20197;-67
2022/03/05 02:44:31;;;;;;;12.88;7.43;;;;;;;;;;5085239;28;20242;-67
2022/03/05 02:46:58;;;;;;;10.90;7.38;;;;;;;;;;5084908;28;20245;-67
2022/03/05 02:49:24;;;;;;;11.90;7.55;;;;;;;;;;5085434;28;20196;-67
2022/03/05 02:51:50;;;;;;;9.55;7.35;;;;;;;;;;5085041;28;20242;-67
2022/03/05 02:54:17;;;;;;;8.32;6.93;;;;;;;;;;5084417;28;20361;-67
2022/03/05 02:56:44;;;;;;;9.65;6.57;;;;;;;;;;5085106;28;20201;-67
2022/03/05 02:59:11;;;;;;;10.60;7.40;;;;;;;;;;5085082;28;20196;-67
2022/03/05 03:01:37;;;;;;;9.50;7.10;;;;;;;;;;5085014;28;20200;-67
2022/03/05 03:04:03;;;;;;;8.90;6.57;;;;;;;;;;5084934;28;20203;-67
2022/03/05 03:06:30;;;;;;;8.23;6.72;;;;;;;;;;5084765;28;20216;-67
2022/03/05 03:08:56;;;;;;;11.45;7.55;;;;;;;;;;5084922;28;20197;-67
2022/03/05 03:11:22;;;;;;;9.68;6.65;;;;;;;;;;5084775;28;20220;-67
2022/03/05 03:13:50;;;;;;;8.98;6.82;;;;;;;;;;5084815;28;20196;-67
2022/03/05 03:16:16;;;;;;;10.10;7.10;;;;;;;;;;5084490;28;20392;-67
2022/03/05 03:18:43;;;;;;;12.00;7.22;;;;;;;;;;5084687;28;20452;-67
2022/03/05 03:21:10;;;;;;;9.38;6.78;;;;;;;;;;5084743;28;20685;-67
2022/03/05 03:23:36;;;;;;;8.80;6.82;;;;;;;;;;5084776;28;20200;-67
2022/03/05 03:26:02;;;;;;;11.60;6.47;;;;;;;;;;5084491;28;20199;-67
2022/03/05 03:28:28;;;;;;;11.23;7.30;;;;;;;;;;5084434;28;20218;-67
2022/03/05 03:30:56;;;;;;;11.38;7.30;;;;;;;;;;5084366;28;20259;-67
2022/03/05 03:33:22;;;;;;;9.23;6.97;;;;;;;;;;5084408;28;20218;-67
2022/03/05 03:35:49;;;;;;;9.68;6.90;;;;;;;;;;5084605;28;20395;-67
2022/03/05 03:38:15;;;;;;;10.15;7.78;;;;;;;;;;5084332;28;20203;-67
2022/03/05 03:40:41;;;;;;;13.65;7.50;;;;;;;;;;5084329;28;20196;-67
2022/03/05 03:43:07;;;;;;;10.80;7.38;;;;;;;;;;5084272;28;20304;-67
2022/03/05 03:45:34;;;;;;;13.93;7.35;;;;;;;;;;5084104;28;20235;-67
2022/03/05 03:48:01;;;;;;;11.55;7.28;;;;;;;;;;5084230;28;20514;-68
2022/03/05 03:50:28;;;;;;;10.45;7.70;;;;;;;;;;5084462;28;20227;-68
2022/03/05 03:52:54;;;;;;;12.30;7.47;;;;;;;;;;5084172;28;20196;-68
2022/03/05 03:55:22;;;;;;;11.43;7.75;;;;;;;;;;5084224;28;20514;-67
2022/03/05 03:57:48;;;;;;;13.50;7.38;;;;;;;;;;5083830;28;20205;-67
2022/03/05 04:00:15;;;;;;;9.77;7.20;;;;;;;;;;5083868;28;20192;-67
2022/03/05 04:02:42;;;;;;;10.30;7.22;;;;;;;;;;5084118;28;20392;-68
2022/03/05 04:05:10;;;;;;;12.82;8.30;;;;;;;;;;5083779;28;20228;-68
2022/03/05 04:10:21;;;;;;;12.27;7.50;;;;;;;;;;5083591;28;20270;-67
2022/03/05 04:12:47;;;;;;;11.32;7.32;;;;;;;;;;5083421;28;20230;-67
2022/03/05 04:15:13;;;;;;;11.75;7.38;;;;;;;;;;5083861;28;20203;-67
2022/03/05 04:17:40;;;;;;;13.45;8.00;;;;;;;;;;5083548;28;20205;-67
2022/03/05 04:20:07;;;;;;;12.18;8.48;;;;;;;;;;5083089;28;20201;-67
2022/03/05 04:22:35;;;;;;;12.30;8.57;;;;;;;;;;5083579;28;20200;-67
2022/03/05 04:25:01;;;;;;;12.45;8.35;;;;;;;;;;5083450;28;20200;-67
2022/03/05 04:27:27;;;;;;;11.90;8.07;;;;;;;;;;5083083;28;20196;-67
2022/03/05 04:29:54;;;;;;;16.35;7.82;;;;;;;;;;5083461;28;20391;-68
2022/03/05 04:32:20;;;;;;;10.93;7.45;;;;;;;;;;5083278;28;20426;-67
2022/03/05 04:34:46;;;;;;;10.43;7.82;;;;;;;;;;5083281;28;20499;-67
2022/03/05 04:37:13;;;;;;;14.20;8.35;;;;;;;;;;5082972;28;20519;-67
2022/03/05 04:39:40;;;;;;;11.70;7.50;;;;;;;;;;5082998;28;20203;-67
2022/03/05 04:42:07;;;;;;;16.73;7.78;;;;;;;;;;5083196;28;20414;-67
2022/03/05 04:44:34;;;;;;;13.07;7.90;;;;;;;;;;5083192;28;20204;-67
2022/03/05 04:47:00;;;;;;;10.13;7.15;;;;;;;;;;5082799;28;20211;-67
2022/03/05 04:49:26;;;;;;;11.88;7.60;;;;;;;;;;5083191;28;20410;-67
2022/03/05 04:51:52;;;;;;;12.35;8.00;;;;;;;;;;5083410;28;20438;-67
2022/03/05 04:54:19;;;;;;;12.95;8.55;;;;;;;;;;5082829;28;20395;-67
2022/03/05 04:56:46;;;;;;;14.90;8.13;;;;;;;;;;5082921;28;20219;-67
2022/03/05 04:59:13;;;;;;;10.05;7.90;;;;;;;;;;5082931;28;20224;-67
2022/03/05 05:01:39;;;;;;;11.02;8.15;;;;;;;;;;5082918;28;20201;-67
2022/03/05 05:04:05;;;;;;;15.68;9.13;;;;;;;;;;5082671;28;20198;-67
2022/03/05 05:06:32;;;;;;;12.77;7.78;;;;;;;;;;5082238;28;20231;-67
2022/03/05 05:08:58;;;;;;;12.80;7.70;;;;;;;;;;5082527;28;20196;-68
2022/03/05 05:11:24;;;;;;;15.88;8.40;;;;;;;;;;5082513;28;20224;-67
2022/03/05 05:13:52;;;;;;;10.45;7.75;;;;;;;;;;5082678;28;20203;-67
2022/03/05 05:16:18;;;;;;;12.35;8.65;;;;;;;;;;5082269;28;20389;-68
2022/03/05 05:19:24;;;;;;;14.00;8.50;;;;;;;;;;5082462;28;20372;-67
2022/03/05 05:21:31;;;;;;;12.75;8.32;;;;;;;;;;5082158;28;20246;-67
2022/03/05 05:23:57;;;;;;;14.32;8.57;;;;;;;;;;5082436;28;20218;-67
2022/03/05 05:26:23;;;;;;;14.82;9.48;;;;;;;;;;5082168;28;20201;-67
2022/03/05 05:28:49;;;;;;;14.05;8.90;;;;;;;;;;5082409;28;20197;-67
2022/03/05 05:31:17;;;;;;;15.80;9.80;;;;;;;;;;5082045;28;20221;-67
2022/03/05 05:33:45;;;;;;;16.58;9.30;;;;;;;;;;5081718;28;20538;-67
2022/03/05 05:36:11;;;;;;;13.02;8.40;;;;;;;;;;5081854;28;20209;-67
2022/03/05 05:38:39;;;;;;;14.88;9.85;;;;;;;;;;5082356;28;20234;-67
2022/03/05 05:41:05;;;;;;;17.63;10.00;;;;;;;;;;5082344;28;20214;-67
2022/03/05 05:43:31;;;;;;;16.33;10.32;;;;;;;;;;5082489;28;20208;-67
2022/03/05 05:45:57;;;;;;;16.20;9.65;;;;;;;;;;5082184;28;20513;-67
2022/03/05 05:48:25;;;;;;;14.63;9.73;;;;;;;;;;5082066;28;20515;-67
2022/03/05 05:50:51;;;;;;;16.42;10.35;;;;;;;;;;5082056;28;20242;-67
2022/03/05 05:53:17;;;;;;;18.60;10.95;;;;;;;;;;5082260;28;20458;-67
2022/03/05 05:55:44;;;;;;;15.95;10.30;;;;;;;;;;5082075;28;20200;-67
2022/03/05 05:58:10;;;;;;;13.80;10.15;;;;;;;;;;5081878;28;20196;-67
2022/03/05 06:00:36;;;;;;;18.70;10.40;;;;;;;;;;5082044;28;20196;-67
2022/03/05 06:03:02;;;;;;;14.85;10.15;;;;;;;;;;5081949;28;20196;-68
2022/03/05 06:05:31;;;;;;;15.15;10.10;;;;;;;;;;5082169;28;20239;-67
2022/03/05 06:07:57;;;;;;;15.25;10.50;;;;;;;;;;5081795;28;20197;-67
2022/03/05 06:10:23;;;;;;;16.65;10.77;;;;;;;;;;5081892;28;20196;-67
2022/03/05 06:12:50;;;;;;;17.52;10.85;;;;;;;;;;5081981;28;20543;-67
2022/03/05 06:15:16;;;;;;;17.20;10.85;;;;;;;;;;5082472;28;20422;-67
2022/03/05 06:17:42;;;;;;;16.20;10.60;;;;;;;;;;5081744;28;20203;-67
2022/03/05 06:20:10;;;;;;;18.75;11.25;;;;;;;;;;5082402;28;20196;-68
2022/03/05 06:22:38;;;;;;;19.02;12.45;;;;;;;;;;5082301;28;20240;-67
2022/03/05 06:25:04;;;;;;;21.85;12.15;;;;;;;;;;5081951;28;20508;-68
2022/03/05 06:27:31;;;;;;;20.00;12.88;;;;;;;;;;5082043;28;20197;-67
2022/03/05 06:29:57;;;;;;;22.10;13.35;;;;;;;;;;5081880;28;20203;-68
2022/03/05 06:32:23;;;;;;;19.85;13.27;;;;;;;;;;5082012;28;20553;-68
2022/03/05 06:34:49;;;;;;;20.60;12.23;;;;;;;;;;5081723;28;20234;-68
2022/03/05 06:37:16;;;;;;;19.77;11.90;;;;;;;;;;5081712;28;20364;-65
2022/03/05 06:39:43;;;;;;;23.67;13.10;;;;;;;;;;5081845;28;20196;-68
2022/03/05 06:42:09;;;;;;;18.50;12.63;;;;;;;;;;5081704;28;20192;-68
2022/03/05 06:44:36;;;;;;;21.23;12.70;;;;;;;;;;5084319;28;20203;-66
2022/03/05 06:47:03;;;;;;;20.58;12.63;;;;;;;;;;5085227;28;20367;-66
2022/03/05 06:49:29;;;;;;;23.50;12.45;;;;;;;;;;5085390;28;20197;-65
2022/03/05 06:51:56;;;;;;;23.98;14.75;;;;;;;;;;5085228;28;20388;-66
2022/03/05 06:54:22;;;;;;;23.25;12.95;;;;;;;;;;5085299;28;20503;-66
2022/03/05 06:56:49;;;;;;;28.80;14.30;;;;;;;;;;5085164;28;20525;-66
2022/03/05 06:59:16;;;;;;;22.95;13.80;;;;;;;;;;5085035;28;20404;-68
2022/03/05 07:01:42;;;;;;;22.08;13.80;;;;;;;;;;5084966;28;20193;-66
2022/03/05 07:04:08;;;;;;;22.70;13.45;;;;;;;;;;5085004;28;20185;-68
2022/03/05 07:06:37;;;;;;;22.05;13.57;;;;;;;;;;5085086;28;20217;-68
2022/03/05 07:09:03;;;;;;;17.52;11.95;;;;;;;;;;5084923;28;20222;-68
2022/03/05 07:11:30;;;;;;;26.75;14.32;;;;;;;;;;5084726;28;20274;-66
2022/03/05 07:13:57;;;;;;;23.27;14.68;;;;;;;;;;5084769;28;20469;-68
2022/03/05 07:16:23;;;;;;;22.52;14.25;;;;;;;;;;5084721;28;20199;-68
2022/03/05 07:18:50;;;;;;;20.52;14.93;;;;;;;;;;5084890;28;20207;-66
2022/03/05 07:21:16;;;;;;;26.77;15.77;;;;;;;;;;5084781;28;20193;-66
2022/03/05 07:23:42;;;;;;;24.42;17.42;;;;;;;;;;5084685;28;20210;-66
2022/03/05 07:26:09;;;;;;;27.95;15.95;;;;;;;;;;5084440;28;20204;-66
2022/03/05 07:28:35;;;;;;;24.95;15.02;;;;;;;;;;5083961;28;20193;-65
2022/03/05 07:31:02;;;;;;;23.52;14.25;;;;;;;;;;5084645;28;20201;-66
2022/03/05 07:33:29;;;;;;;22.95;14.13;;;;;;;;;;5083043;28;20299;-66
2022/03/05 07:35:55;;;;;;;21.23;13.30;;;;;;;;;;5084238;28;20196;-66
2022/03/05 07:38:21;;;;;;;20.10;13.30;;;;;;;;;;5084027;28;20204;-66
2022/03/05 07:40:48;;;;;;;29.95;15.85;;;;;;;;;;5084639;28;20250;-66
2022/03/05 07:43:14;;;;;;;20.52;13.70;;;;;;;;;;5084180;28;20196;-66
2022/03/05 07:45:40;;;;;;;24.02;13.57;;;;;;;;;;5084285;28;20203;-66
2022/03/05 07:48:08;;;;;;;22.55;13.82;;;;;;;;;;5083964;28;20189;-66
2022/03/05 07:50:34;;;;;;;22.42;14.45;;;;;;;;;;5084162;28;20203;-66
2022/03/05 07:53:00;;;;;;;24.38;14.60;;;;;;;;;;5083984;28;20395;-66
2022/03/05 07:55:27;;;;;;;22.58;14.05;;;;;;;;;;5083034;28;20200;-66
2022/03/05 07:57:53;;;;;;;22.20;14.15;;;;;;;;;;5083902;28;20204;-66
2022/03/05 08:00:19;;;;;;;22.30;13.70;;;;;;;;;;5083790;28;20203;-66
2022/03/05 08:02:46;;;;;;;27.60;14.38;;;;;;;;;;5084080;28;20193;-66
2022/03/05 08:05:13;;;;;;;22.50;14.10;;;;;;;;;;5083853;28;20215;-68
2022/03/05 08:07:39;;;;;;;32.17;14.23;;;;;;;;;;5083676;28;20196;-68
2022/03/05 08:10:07;;;;;;;24.42;14.68;;;;;;;;;;5083606;28;20206;-66
2022/03/05 08:12:34;;;;;;;24.58;15.25;;;;;;;;;;5083541;28;20228;-66
2022/03/05 08:15:00;;;;;;;22.88;14.15;;;;;;;;;;5083718;28;20503;-66
2022/03/05 08:17:26;;;;;;;25.83;14.68;;;;;;;;;;5083454;28;20516;-66
2022/03/05 08:19:52;;;;;;;24.60;14.65;;;;;;;;;;5083474;28;20516;-66
2022/03/05 08:22:20;;;;;;;25.60;14.98;;;;;;;;;;5083412;28;20192;-66
2022/03/05 08:24:46;;;;;;;22.42;13.73;;;;;;;;;;5083260;28;20210;-66
2022/03/05 08:27:12;;;;;;;24.60;14.27;;;;;;;;;;5083070;28;20242;-66
2022/03/05 08:29:39;;;;;;;24.70;15.73;;;;;;;;;;5083479;28;20203;-68
2022/03/05 08:32:05;;;;;;;24.10;14.68;;;;;;;;;;5083143;28;20243;-66
2022/03/05 08:34:31;;;;;;;22.88;15.00;;;;;;;;;;5083238;28;20197;-66
2022/03/05 08:36:57;;;;;;;22.45;13.98;;;;;;;;;;5082951;28;20196;-66
2022/03/05 08:39:25;;;;;;;22.38;14.98;;;;;;;;;;5083149;28;20200;-66
2022/03/05 08:41:51;;;;;;;23.75;14.52;;;;;;;;;;5083287;28;20214;-68
2022/03/05 08:44:18;;;;;;;21.52;14.23;;;;;;;;;;5083145;28;20203;-68
2022/03/05 08:46:44;;;;;;;22.88;14.23;;;;;;;;;;5082889;28;20196;-68
2022/03/05 08:49:10;;;;;;;22.92;14.77;;;;;;;;;;5082987;28;20208;-66
2022/03/05 08:51:38;;;;;;;22.02;12.93;;;;;;;;;;5082806;28;20218;-68
2022/03/05 08:54:04;;;;;;;23.95;15.00;;;;;;;;;;5082886;28;20196;-66
2022/03/05 08:56:32;;;;;;;24.63;14.82;;;;;;;;;;5082756;28;20203;-66
2022/03/05 08:58:58;;;;;;;23.95;15.02;;;;;;;;;;5082947;28;20255;-66
2022/03/05 09:01:24;;;;;;;24.15;15.07;;;;;;;;;;5082790;28;20192;-68
2022/03/05 09:03:50;;;;;;;22.17;14.07;;;;;;;;;;5082591;28;20201;-66
2022/03/05 09:06:17;;;;;;;23.98;14.63;;;;;;;;;;5081575;28;20220;-66
2022/03/05 09:08:43;;;;;;;20.77;13.85;;;;;;;;;;5082187;28;20542;-68
2022/03/05 09:11:09;;;;;;;22.63;14.50;;;;;;;;;;5082313;28;20515;-66
2022/03/05 09:13:37;;;;;;;21.85;13.73;;;;;;;;;;5082347;28;20255;-66
2022/03/05 09:16:04;;;;;;;21.00;12.88;;;;;;;;;;5081928;28;20196;-66
2022/03/05 09:18:30;;;;;;;23.75;14.15;;;;;;;;;;5081899;28;20196;-66
2022/03/05 09:20:56;;;;;;;23.08;13.73;;;;;;;;;;5081807;28;20205;-68
2022/03/05 09:23:23;;;;;;;21.90;12.80;;;;;;;;;;5081935;28;20204;-68
2022/03/05 09:25:49;;;;;;;19.33;13.07;;;;;;;;;;5082169;28;20505;-66
2022/03/05 09:28:15;;;;;;;20.00;13.43;;;;;;;;;;5081813;28;20200;-66
2022/03/05 09:30:43;;;;;;;18.85;12.75;;;;;;;;;;5081989;28;20219;-66
2022/03/05 09:33:09;;;;;;;18.70;12.38;;;;;;;;;;5081950;28;20238;-66
2022/03/05 09:35:35;;;;;;;16.98;12.50;;;;;;;;;;5081707;28;20196;-66
2022/03/05 09:38:02;;;;;;;16.90;11.63;;;;;;;;;;5082088;28;20200;-66
2022/03/05 09:40:29;;;;;;;16.65;11.88;;;;;;;;;;5081819;28;20196;-66
2022/03/05 09:42:55;;;;;;;19.40;11.30;;;;;;;;;;5081930;28;20193;-66
2022/03/05 09:45:22;;;;;;;18.35;11.38;;;;;;;;;;5081904;28;20197;-66
2022/03/05 09:47:49;;;;;;;18.33;11.18;;;;;;;;;;5081605;28;20196;-66
2022/03/05 09:50:16;;;;;;;20.05;11.30;;;;;;;;;;5081672;28;20503;-68
2022/03/05 09:52:42;;;;;;;14.65;10.50;;;;;;;;;;5081535;28;20216;-66
2022/03/05 09:55:09;;;;;;;15.93;11.27;;;;;;;;;;5081947;28;20200;-66
2022/03/05 09:57:36;;;;;;;19.65;11.43;;;;;;;;;;5081417;28;20196;-66
2022/03/05 10:00:03;;;;;;;14.20;10.95;;;;;;;;;;5081630;28;20267;-66
2022/03/05 10:02:30;;;;;;;13.77;10.48;;;;;;;;;;5082017;28;20238;-68
2022/03/05 10:05:20;;;;;;;14.55;10.27;;;;;;;;;;5081495;28;20496;-66
2022/03/05 10:08:07;;;;;;;15.80;11.07;;;;;;;;;;5081255;28;20207;-66
2022/03/05 10:10:39;;;;;;;13.77;10.48;;;;;;;;;;5081620;28;20202;-66
2022/03/05 10:13:15;;;;;;;16.30;10.55;;;;;;;;;;5081399;28;20219;-66
2022/03/05 10:15:41;;;;;;;11.63;8.95;;;;;;;;;;5081913;28;20204;-68
2022/03/05 10:18:07;;;;;;;11.88;9.05;;;;;;;;;;5081463;28;20516;-66
2022/03/05 10:20:42;;;;;;;11.07;8.43;;;;;;;;;;5085711;28;20503;-66
2022/03/05 10:23:10;;;;;;;14.25;9.23;;;;;;;;;;5085418;28;20196;-67
2022/03/05 10:25:38;;;;;;;13.98;9.43;;;;;;;;;;5085346;28;20196;-67
2022/03/05 10:28:09;;;;;;;11.93;8.07;;;;;;;;;;5085302;28;20271;-67
2022/03/05 10:30:35;;;;;;;13.82;8.88;;;;;;;;;;5085486;28;20392;-67
2022/03/05 10:33:02;;;;;;;11.15;8.18;;;;;;;;;;5084826;28;20273;-67
2022/03/05 10:35:28;;;;;;;11.10;8.55;;;;;;;;;;5085284;28;20200;-67
2022/03/05 10:37:56;;;;;;;10.07;8.20;;;;;;;;;;5084828;28;20200;-67
2022/03/05 10:40:25;;;;;;;10.77;8.20;;;;;;;;;;5085025;28;20200;-67
2022/03/05 10:42:52;;;;;;;9.25;8.25;;;;;;;;;;5084995;28;20205;-67
2022/03/05 10:45:18;;;;;;;10.18;7.88;;;;;;;;;;5084892;28;20196;-68
2022/03/05 10:47:45;;;;;;;8.95;7.65;;;;;;;;;;5084431;28;20414;-66
2022/03/05 10:50:21;;;;;;;9.85;8.00;;;;;;;;;;5084731;28;20500;-68
2022/03/05 10:52:48;;;;;;;9.38;7.53;;;;;;;;;;5084854;28;20493;-68
2022/03/05 10:55:17;;;;;;;13.52;8.13;;;;;;;;;;5085101;28;20204;-68
2022/03/05 10:57:55;;;;;;;10.48;7.95;;;;;;;;;;5084909;28;20196;-68
2022/03/05 11:00:22;;;;;;;9.23;7.25;;;;;;;;;;5085220;28;20197;-68
2022/03/05 11:02:50;;;;;;;9.48;7.70;;;;;;;;;;5084973;28;20193;-68
2022/03/05 11:05:17;;;;;;;7.68;6.93;;;;;;;;;;5084806;28;20255;-68
2022/03/05 11:07:44;;;;;;;8.95;6.97;;;;;;;;;;5084844;28;20507;-68
2022/03/05 11:10:10;;;;;;;8.27;7.43;;;;;;;;;;5084968;28;20377;-68
2022/03/05 11:12:39;;;;;;;11.48;7.28;;;;;;;;;;5085360;28;20227;-69
2022/03/05 11:15:07;;;;;;;8.18;7.07;;;;;;;;;;5073439;28;20516;-67
2022/03/05 11:17:34;;;;;;;8.55;7.22;;;;;;;;;;5074549;28;20200;-67
2022/03/05 11:20:00;;;;;;;8.80;7.40;;;;;;;;;;5076326;28;20433;-67
2022/03/05 11:22:27;;;;;;;12.85;6.97;;;;;;;;;;5074924;28;20224;-68
2022/03/05 11:24:54;;;;;;;10.05;7.28;;;;;;;;;;5076220;28;20197;-67
2022/03/05 11:27:20;;;;;;;11.05;7.80;;;;;;;;;;5074651;28;20201;-67
2022/03/05 11:29:55;;;;;;;10.13;7.25;;;;;;;;;;5072100;28;20205;-67
2022/03/05 11:32:22;;;;;;;9.13;7.20;;;;;;;;;;5073613;28;20195;-67
2022/03/05 11:34:50;;;;;;;8.00;7.20;;;;;;;;;;5075123;28;20192;-67
2022/03/05 11:37:17;;;;;;;8.88;7.35;;;;;;;;;;5082214;28;20204;-67
2022/03/05 11:39:43;;;;;;;8.43;7.15;;;;;;;;;;5084237;28;20203;-68
2022/03/05 11:42:09;;;;;;;8.57;7.68;;;;;;;;;;5084217;28;20242;-68
2022/03/05 11:44:40;;;;;;;9.65;7.78;;;;;;;;;;5084766;28;20193;-67
2022/03/05 11:47:24;;;;;;;9.60;7.60;;;;;;;;;;5084340;28;20193;-67
2022/03/05 11:50:08;;;;;;;9.48;7.82;;;;;;;;;;5084441;28;20272;-67
2022/03/05 11:52:53;;;;;;;9.77;7.53;;;;;;;;;;5084151;28;20214;-68
2022/03/05 11:55:20;;;;;;;9.85;7.75;;;;;;;;;;5083983;28;20403;-68
2022/03/05 11:58:11;;;;;;;8.48;7.53;;;;;;;;;;5084063;28;20275;-67
2022/03/05 12:00:37;;;;;;;8.93;7.15;;;;;;;;;;5083945;28;20402;-67
2022/03/05 12:03:06;;;;;;;9.25;7.60;;;;;;;;;;5083941;28;20409;-67
2022/03/05 12:05:51;;;;;;;9.10;7.97;;;;;;;;;;5083791;28;20251;-67
2022/03/05 12:08:32;;;;;;;8.10;7.30;;;;;;;;;;5083875;28;20430;-68
2022/03/05 12:11:08;;;;;;;8.55;7.65;;;;;;;;;;5083676;28;20197;-68
2022/03/05 12:13:39;;;;;;;8.45;7.55;;;;;;;;;;5083661;28;20227;-67
2022/03/05 12:16:13;;;;;;;9.43;7.90;;;;;;;;;;5083531;28;20435;-67
2022/03/05 12:18:42;;;;;;;9.52;7.72;;;;;;;;;;5083943;28;20364;-67
2022/03/05 12:21:08;;;;;;;8.20;6.93;;;;;;;;;;5083484;28;20203;-67
2022/03/05 12:23:34;;;;;;;9.90;8.10;;;;;;;;;;5083475;28;20192;-67
2022/03/05 12:26:03;;;;;;;9.23;7.47;;;;;;;;;;5083164;28;20219;-68
2022/03/05 12:28:31;;;;;;;10.23;7.45;;;;;;;;;;5083094;28;20203;-67
2022/03/05 12:30:58;;;;;;;9.75;6.78;;;;;;;;;;5083574;28;20525;-68
2022/03/05 12:33:26;;;;;;;10.23;7.75;;;;;;;;;;5084097;28;20250;-68
2022/03/05 12:35:55;;;;;;;9.50;7.70;;;;;;;;;;5084007;28;20453;-68
2022/03/05 12:38:22;;;;;;;10.00;7.97;;;;;;;;;;5083668;28;20242;-68
2022/03/05 12:40:48;;;;;;;8.70;7.82;;;;;;;;;;5083465;28;20430;-68
2022/03/05 12:43:15;;;;;;;11.20;8.25;;;;;;;;;;5083434;28;20200;-68
2022/03/05 12:45:41;;;;;;;8.63;7.70;;;;;;;;;;5083896;28;20202;-68
2022/03/05 12:48:09;;;;;;;8.68;7.78;;;;;;;;;;5083606;28;20201;-68
2022/03/05 12:50:36;;;;;;;8.68;7.68;;;;;;;;;;5067973;28;20197;-68
2022/03/05 12:53:05;;;;;;;8.88;7.80;;;;;;;;;;5063011;28;20466;-68
2022/03/05 12:55:32;;;;;;;7.97;7.18;;;;;;;;;;5062810;28;20235;-68
2022/03/05 12:58:03;;;;;;;7.82;7.07;;;;;;;;;;5062502;28;20197;-68
2022/03/05 13:00:30;;;;;;;12.32;7.15;;;;;;;;;;5062599;28;20237;-68
2022/03/05 13:02:56;;;;;;;10.13;7.75;;;;;;;;;;5062783;28;20366;-68
2022/03/05 13:05:22;;;;;;;8.10;7.28;;;;;;;;;;5062644;28;20442;-68
2022/03/05 13:07:48;;;;;;;8.35;7.50;;;;;;;;;;5067626;28;20434;-68
2022/03/05 13:10:17;;;;;;;9.27;7.75;;;;;;;;;;5082331;28;20203;-68
2022/03/05 13:12:44;;;;;;;8.63;7.72;;;;;;;;;;5082369;28;20211;-68
2022/03/05 13:15:10;;;;;;;7.85;7.18;;;;;;;;;;5082214;28;20200;-68
2022/03/05 13:17:45;;;;;;;8.63;7.10;;;;;;;;;;5082176;28;20196;-68
2022/03/05 13:20:15;;;;;;;11.77;7.50;;;;;;;;;;5082317;28;20514;-68
2022/03/05 13:22:41;;;;;;;8.68;7.68;;;;;;;;;;5082629;28;20196;-68
2022/03/05 13:25:09;;;;;;;7.93;7.13;;;;;;;;;;5082433;28;20219;-68
2022/03/05 13:27:36;;;;;;;28.50;18.52;;;;;;;;;;5082420;28;20263;-68
2022/03/05 13:30:07;;;;;;;10.68;8.25;;;;;;;;;;5082170;28;20197;-68
2022/03/05 13:32:41;;;;;;;10.15;7.70;;;;;;;;;;5082231;28;20531;-68
2022/03/05 13:35:08;;;;;;;10.30;8.15;;;;;;;;;;5082016;28;20456;-68
2022/03/05 13:37:37;;;;;;;8.93;7.40;;;;;;;;;;5082120;28;20197;-68
2022/03/05 13:40:03;;;;;;;8.45;7.50;;;;;;;;;;5082236;28;20196;-68
2022/03/05 13:42:32;;;;;;;8.65;7.75;;;;;;;;;;5082181;28;20204;-68
2022/03/05 13:45:01;;;;;;;10.88;7.70;;;;;;;;;;5082066;28;20199;-68
2022/03/05 13:47:28;;;;;;;11.48;8.30;;;;;;;;;;5081784;28;20504;-68
2022/03/05 13:49:59;;;;;;;8.80;7.90;;;;;;;;;;5081965;28;20196;-68
2022/03/05 13:52:25;;;;;;;8.27;7.32;;;;;;;;;;5081683;28;20188;-68
2022/03/05 13:54:52;;;;;;;10.27;7.57;;;;;;;;;;5081318;28;20626;-68
2022/03/05 13:57:26;;;;;;;8.60;7.30;;;;;;;;;;5081616;28;20430;-68
2022/03/05 13:59:52;;;;;;;9.45;7.03;;;;;;;;;;5081782;28;20195;-68
2022/03/05 14:02:20;;;;;;;7.60;6.82;;;;;;;;;;5081661;28;20200;-68
2022/03/05 14:04:56;;;;;;;7.88;7.07;;;;;;;;;;5081562;28;20199;-68
2022/03/05 14:07:22;;;;;;;8.55;7.65;;;;;;;;;;5081628;28;20204;-68
2022/03/05 14:09:49;;;;;;;8.75;7.00;;;;;;;;;;5081774;28;20226;-68
2022/03/05 14:12:16;;;;;;;8.98;7.40;;;;;;;;;;5081639;28;20212;-68
2022/03/05 14:14:51;;;;;;;7.72;6.93;;;;;;;;;;5081411;28;20531;-68
2022/03/05 14:17:26;;;;;;;11.80;6.80;;;;;;;;;;5081602;28;20233;-68
2022/03/05 14:20:03;;;;;;;7.75;6.25;;;;;;;;;;5081753;28;20421;-68
2022/03/05 14:22:33;;;;;;;8.80;6.90;;;;;;;;;;5081751;28;20365;-68
2022/03/05 14:25:00;;;;;;;7.90;7.00;;;;;;;;;;5082013;28;20200;-68
2022/03/05 14:27:26;;;;;;;7.47;6.70;;;;;;;;;;5081052;28;20204;-68
2022/03/05 14:29:52;;;;;;;7.30;6.53;;;;;;;;;;5081608;28;20197;-68
2022/03/05 14:32:19;;;;;;;8.18;7.13;;;;;;;;;;5081483;28;20511;-68